Time;durP1;ratioP1;P1;durP2;ratioP2;P2;SDS_P1;SDS_P2;PMS_P1;PMS_P2;Temp;Humidity;BMP_temperature;BMP_pressure;BME280_temperature;BME280_humidity;BME280_pressure;Samples;Min_cycle;Max_cycle;Signal;HPM_P1;HPM_P2
2021/12/20 00:01:28;;;;;;;1.67;0.50;;;;;;;4.59;69.20;98014.03;9821095;30;20052;-79
2021/12/20 00:06:49;;;;;;;2.85;0.50;;;;;;;4.64;69.15;98026.22;9820648;30;20112;-80
2021/12/20 00:12:10;;;;;;;1.80;0.43;;;;;;;4.49;69.19;98039.97;9809004;30;20056;-79
2021/12/20 00:17:31;;;;;;;5.15;0.73;;;;;;;4.32;69.25;98041.19;9820547;30;20561;-80
2021/12/20 00:22:52;;;;;;;4.25;0.60;;;;;;;4.30;69.39;98052.03;9808655;30;20052;-79
2021/12/20 00:28:13;;;;;;;5.15;0.95;;;;;;;4.31;69.52;98061.06;9808329;30;20069;-80
2021/12/20 00:33:34;;;;;;;4.35;0.68;;;;;;;4.36;69.87;98062.97;9821013;30;20403;-79
2021/12/20 00:44:35;;;;;;;2.83;0.80;;;;;;;4.36;70.29;98057.44;9824932;30;20385;-79
2021/12/20 00:49:56;;;;;;;3.00;0.55;;;;;;;4.35;70.50;98055.94;9816686;30;20399;-80
2021/12/20 00:55:18;;;;;;;3.30;0.50;;;;;;;4.35;70.10;98060.75;9826272;30;20068;-80
2021/12/20 01:00:46;;;;;;;3.15;0.60;;;;;;;4.41;69.71;98072.38;9796211;30;20040;-80
2021/12/20 01:06:07;;;;;;;4.22;0.95;;;;;;;4.52;70.03;98085.88;9801457;30;20059;-80
2021/12/20 01:11:29;;;;;;;3.90;0.85;;;;;;;4.56;69.97;98092.53;9791186;30;20052;-80
2021/12/20 01:16:51;;;;;;;4.00;0.70;;;;;;;4.55;69.83;98093.09;9793154;30;20047;-80
2021/12/20 01:22:12;;;;;;;2.38;0.73;;;;;;;4.57;69.85;98087.75;9795221;30;20132;-79
2021/12/20 01:27:33;;;;;;;3.88;1.38;;;;;;;4.40;68.93;98090.25;9784850;30;20193;-80
2021/12/20 01:32:54;;;;;;;3.70;0.70;;;;;;;3.96;68.62;98092.94;9782299;30;20132;-80
2021/12/20 01:38:15;;;;;;;3.83;0.90;;;;;;;3.56;69.14;98095.16;9792197;30;20051;-80
2021/12/20 01:43:37;;;;;;;4.07;0.88;;;;;;;3.33;68.69;98094.97;9782293;30;20044;-80
2021/12/20 01:49:00;;;;;;;4.63;0.80;;;;;;;3.12;68.67;98105.97;9794970;30;20044;-80
2021/12/20 01:54:22;;;;;;;4.75;0.93;;;;;;;3.08;68.85;98098.00;9813464;30;20135;-80
2021/12/20 01:59:43;;;;;;;3.65;0.60;;;;;;;2.98;68.88;98110.03;9812429;30;20635;-80
2021/12/20 02:05:17;;;;;;;3.47;0.75;;;;;;;2.93;69.10;98121.94;9786496;30;20091;-80
2021/12/20 02:10:40;;;;;;;2.38;0.50;;;;;;;2.84;69.31;98117.59;9815015;30;20054;-80
2021/12/20 02:16:01;;;;;;;3.90;0.65;;;;;;;2.75;68.77;98123.56;9812918;30;20097;-80
2021/12/20 02:21:22;;;;;;;3.03;0.60;;;;;;;2.70;69.25;98119.66;9812085;30;20056;-80
2021/12/20 02:26:43;;;;;;;4.80;0.68;;;;;;;2.58;69.00;98129.41;9811855;30;20048;-80
2021/12/20 02:37:44;;;;;;;3.35;0.60;;;;;;;2.40;68.56;98131.00;9816156;30;20083;-80
2021/12/20 02:43:04;;;;;;;2.63;0.45;;;;;;;2.33;68.43;98131.66;9812311;30;20048;-80
2021/12/20 02:48:25;;;;;;;2.45;0.60;;;;;;;2.22;69.02;98132.59;9811651;30;20514;-80
2021/12/20 02:53:46;;;;;;;3.78;0.70;;;;;;;2.13;68.61;98143.28;9811434;30;20051;-80
2021/12/20 02:59:07;;;;;;;3.08;0.52;;;;;;;2.07;68.73;98139.88;9811348;30;20060;-80
2021/12/20 03:04:28;;;;;;;2.45;0.60;;;;;;;2.01;68.79;98154.47;9811151;30;20060;-80
2021/12/20 03:09:54;;;;;;;2.72;0.52;;;;;;;1.92;68.57;98165.91;9810812;30;20058;-80
2021/12/20 03:15:20;;;;;;;2.80;0.50;;;;;;;1.87;68.46;98174.28;9812286;30;20407;-80
2021/12/20 03:20:44;;;;;;;3.17;0.88;;;;;;;1.82;68.98;98184.09;9799879;30;20411;-80
2021/12/20 03:26:05;;;;;;;3.00;0.50;;;;;;;1.76;67.63;98186.19;9811936;30;20051;-80
2021/12/20 03:31:26;;;;;;;3.40;0.55;;;;;;;1.64;68.42;98191.16;9811210;30;20060;-80
2021/12/20 03:36:47;;;;;;;3.42;0.55;;;;;;;1.66;67.97;98183.09;9810681;30;20051;-80
2021/12/20 03:42:08;;;;;;;2.05;0.50;;;;;;;1.61;67.58;98174.91;9810538;30;20052;-80
2021/12/20 03:47:29;;;;;;;1.90;0.50;;;;;;;1.57;67.76;98185.50;9810994;30;20048;-80
2021/12/20 03:52:50;;;;;;;2.05;0.40;;;;;;;1.53;67.58;98179.53;9810459;30;20055;-80
2021/12/20 03:58:11;;;;;;;1.77;0.40;;;;;;;1.50;67.33;98186.84;9810380;30;20124;-80
2021/12/20 04:03:35;;;;;;;1.60;0.32;;;;;;;1.44;67.47;98184.16;9810253;30;20064;-80
2021/12/20 04:08:56;;;;;;;2.08;0.40;;;;;;;1.38;67.74;98202.03;9811313;30;20044;-80
2021/12/20 04:14:18;;;;;;;3.90;0.60;;;;;;;1.36;67.02;98194.28;9798492;30;20114;-80
2021/12/20 04:19:39;;;;;;;2.70;0.47;;;;;;;1.32;67.29;98188.34;9810459;30;20484;-80
2021/12/20 04:24:59;;;;;;;2.72;0.45;;;;;;;1.27;67.46;98186.44;9813782;30;20059;-80
2021/12/20 04:30:21;;;;;;;2.60;0.60;;;;;;;1.24;67.54;98198.44;9817605;30;20056;-80
2021/12/20 04:35:42;;;;;;;3.15;0.47;;;;;;;1.21;67.06;98194.00;9805053;30;20408;-80
2021/12/20 04:41:02;;;;;;;2.47;0.55;;;;;;;1.18;67.15;98200.53;9816810;30;20052;-80
2021/12/20 04:46:23;;;;;;;3.47;0.40;;;;;;;1.20;67.56;98225.50;9816328;30;20136;-80
2021/12/20 04:51:44;;;;;;;7.35;0.70;;;;;;;1.21;67.08;98226.25;9816383;30;20051;-80
2021/12/20 04:57:05;;;;;;;2.97;0.65;;;;;;;1.22;66.73;98217.47;9817338;30;20143;-80
2021/12/20 05:02:26;;;;;;;4.13;0.50;;;;;;;1.19;66.98;98221.28;9805871;30;20127;-80
2021/12/20 05:07:48;;;;;;;3.35;0.73;;;;;;;1.12;67.30;98225.34;9783341;30;20037;-81
2021/12/20 05:13:11;;;;;;;4.07;0.80;;;;;;;1.12;67.44;98225.34;9792685;30;20060;-80
2021/12/20 05:18:38;;;;;;;3.33;0.60;;;;;;;1.11;67.20;98228.63;9797926;30;20522;-80
2021/12/20 05:23:58;;;;;;;6.57;0.90;;;;;;;1.14;66.59;98231.06;9787717;30;20484;-80
2021/12/20 05:29:20;;;;;;;3.58;0.65;;;;;;;1.10;66.69;98222.38;9797136;30;20048;-80
2021/12/20 05:34:41;;;;;;;3.28;0.73;;;;;;;1.08;66.77;98233.16;9793089;30;20127;-80
2021/12/20 05:40:04;;;;;;;3.78;0.73;;;;;;;1.09;66.49;98245.66;9796212;30;20450;-80
2021/12/20 05:45:25;;;;;;;2.65;0.70;;;;;;;1.11;66.29;98245.13;9792024;30;20076;-80
2021/12/20 05:50:46;;;;;;;2.72;0.60;;;;;;;1.06;65.58;98252.19;9765410;30;20048;-80
2021/12/20 05:56:08;;;;;;;3.58;0.50;;;;;;;1.04;65.73;98262.19;9778408;30;20449;-80
2021/12/20 06:01:29;;;;;;;3.00;0.60;;;;;;;1.00;66.27;98279.00;9779024;30;20395;-80
2021/12/20 06:06:50;;;;;;;4.28;0.93;;;;;;;0.98;66.20;98273.28;9778634;30;20049;-79
2021/12/20 06:12:11;;;;;;;4.25;0.60;;;;;;;0.96;65.65;98275.78;9807546;30;20411;-80
2021/12/20 06:17:32;;;;;;;2.70;0.65;;;;;;;0.96;65.93;98283.28;9814492;30;20059;-80
2021/12/20 06:22:52;;;;;;;3.97;0.68;;;;;;;0.99;65.50;98285.00;9814504;30;20055;-80
2021/12/20 06:28:13;;;;;;;4.53;0.63;;;;;;;1.01;65.92;98285.22;9788795;30;20053;-80
2021/12/20 06:33:34;;;;;;;2.65;0.50;;;;;;;0.98;65.00;98281.53;9826734;30;20408;-80
2021/12/20 06:38:56;;;;;;;2.45;0.85;;;;;;;0.99;65.59;98296.00;9801767;30;20056;-80
2021/12/20 06:44:18;;;;;;;2.47;0.82;;;;;;;0.96;65.07;98299.78;9813823;30;20052;-80
2021/12/20 06:49:40;;;;;;;4.68;1.60;;;;;;;0.97;64.82;98302.03;9801176;30;20083;-80
2021/12/20 06:55:01;;;;;;;5.70;0.88;;;;;;;0.99;65.47;98307.75;9813528;30;20056;-80
2021/12/20 07:00:23;;;;;;;4.70;0.88;;;;;;;1.05;65.16;98307.69;9812990;30;20068;-80
2021/12/20 07:05:44;;;;;;;4.60;0.80;;;;;;;1.08;65.12;98318.41;9823830;30;20056;-80
2021/12/20 07:11:08;;;;;;;2.78;0.80;;;;;;;1.19;65.12;98325.78;9810974;30;20078;-80
2021/12/20 07:16:32;;;;;;;4.20;1.10;;;;;;;1.29;64.95;98329.66;9798717;30;20040;-80
2021/12/20 07:21:53;;;;;;;;;;;;;;;1.94;64.78;98342.34;9811844;30;20583;-80
2021/12/20 07:27:16;;;;;;;4.28;0.93;;;;;;;2.88;63.69;98344.13;9821534;30;19937;-79
2021/12/20 07:32:37;;;;;;;3.30;0.70;;;;;;;4.56;62.92;98332.34;9810420;30;20537;-78
2021/12/20 07:38:00;;;;;;;2.58;0.80;;;;;;;6.23;61.44;98340.09;9818092;30;20052;-78
2021/12/20 07:43:21;;;;;;;4.13;0.93;;;;;;;11.00;53.72;98351.06;9809665;30;20182;-79
2021/12/20 07:48:42;;;;;;;3.22;1.10;;;;;;;14.27;50.42;98344.84;9797237;30;20055;-79
2021/12/20 07:54:03;;;;;;;7.40;1.20;;;;;;;16.95;43.63;98347.53;9798309;30;20059;-79
2021/12/20 07:59:24;;;;;;;3.60;0.93;;;;;;;19.06;40.22;98347.75;9825348;30;20063;-79
2021/12/20 08:04:49;;;;;;;4.10;1.05;;;;;;;19.90;38.19;98347.09;9829606;30;20079;-77
2021/12/20 08:10:11;;;;;;;4.68;1.25;;;;;;;21.86;35.76;98348.56;9816706;30;20436;-79
2021/12/20 08:15:31;;;;;;;3.45;1.02;;;;;;;22.31;34.67;98362.13;9815687;30;20050;-79
2021/12/20 08:20:53;;;;;;;3.33;0.82;;;;;;;24.07;31.77;98362.00;9789225;30;20052;-79
2021/12/20 08:26:14;;;;;;;5.05;1.42;;;;;;;25.92;28.65;98372.25;9791075;30;20045;-80
2021/12/20 08:31:36;;;;;;;4.68;1.20;;;;;;;25.60;27.54;98363.09;9766636;30;20045;-79
2021/12/20 08:36:57;;;;;;;3.20;0.90;;;;;;;27.10;24.92;98379.00;9790789;30;20048;-79
2021/12/20 08:42:19;;;;;;;3.25;0.98;;;;;;;27.12;21.25;98379.03;9778149;30;20060;-79
2021/12/20 08:47:40;;;;;;;3.53;0.95;;;;;;;27.20;22.34;98390.56;9778272;30;20049;-79
2021/12/20 08:53:01;;;;;;;3.90;1.10;;;;;;;28.50;20.08;98393.97;9778203;30;20049;-78
2021/12/20 08:58:21;;;;;;;3.75;1.23;;;;;;;28.04;19.81;98405.78;9777719;30;20068;-80
2021/12/20 09:03:44;;;;;;;4.25;1.13;;;;;;;29.36;18.35;98398.72;9765402;30;20059;-81
2021/12/20 09:09:11;;;;;;;3.75;1.10;;;;;;;31.27;15.64;98408.78;9777481;30;20088;-81
2021/12/20 09:14:33;;;;;;;6.20;1.20;;;;;;;29.99;16.28;98403.16;9777674;30;20565;-80
2021/12/20 09:19:54;;;;;;;;;;;;;;;31.20;14.33;98408.06;9777900;30;20544;-81
2021/12/20 09:25:19;;;;;;;2.55;1.15;;;;;;;31.10;14.36;98413.13;9776809;30;20453;-80
2021/12/20 09:30:43;;;;;;;2.65;0.88;;;;;;;30.46;14.54;98413.25;9777282;30;20058;-80
2021/12/20 09:36:04;;;;;;;3.90;1.25;;;;;;;31.24;13.85;98418.88;9776688;30;20056;-80
2021/12/20 09:46:56;;;;;;;3.53;0.95;;;;;;;31.17;13.38;98406.59;9811931;30;20052;-81
2021/12/20 09:52:18;;;;;;;3.60;0.68;;;;;;;32.04;12.12;98411.22;9787766;30;20131;-80
2021/12/20 09:57:39;;;;;;;;;;;;;;;30.69;12.36;98408.22;9811314;30;20143;-80
2021/12/20 10:03:00;;;;;;;3.70;0.70;;;;;;;32.61;12.13;98416.50;9819685;30;20020;-80
2021/12/20 10:08:30;;;;;;;;;;;;;;;33.66;10.14;98416.00;9824288;30;20547;-80
2021/12/20 10:14:08;;;;;;;2.72;0.60;;;;;;;30.24;11.80;98416.16;9824447;30;20389;-81
2021/12/20 10:19:31;;;;;;;3.33;0.77;;;;;;;22.80;14.53;98409.09;9799544;30;20052;-80
2021/12/20 10:24:52;;;;;;;3.92;0.93;;;;;;;17.68;17.60;98404.88;9823055;30;20072;-79
2021/12/20 10:30:23;;;;;;;3.97;0.85;;;;;;;14.43;20.91;98404.09;9822861;30;20102;-80
2021/12/20 10:35:54;;;;;;;4.18;0.73;;;;;;;12.19;23.52;98396.78;9811118;30;20059;-80
2021/12/20 10:41:36;;;;;;;3.75;0.95;;;;;;;10.70;25.13;98396.19;9823311;30;20055;-76
2021/12/20 10:46:57;;;;;;;4.93;0.93;;;;;;;9.81;26.22;98396.19;9836568;30;20063;-76
2021/12/20 10:52:28;;;;;;;3.50;0.77;;;;;;;9.32;30.65;98399.84;9824834;30;20139;-76
2021/12/20 10:57:49;;;;;;;7.82;1.10;;;;;;;9.03;30.28;98391.19;9800327;30;20416;-76
2021/12/20 11:03:27;;;;;;;4.60;0.75;;;;;;;9.09;29.17;98391.69;9812401;30;20048;-80
2021/12/20 11:09:07;;;;;;;4.18;0.90;;;;;;;8.89;30.36;98391.47;9832157;30;20048;-80
2021/12/20 11:14:32;;;;;;;4.93;0.90;;;;;;;8.69;30.70;98384.19;9825106;30;20563;-79
2021/12/20 11:19:55;;;;;;;3.65;1.00;;;;;;;8.55;32.40;98394.13;9837599;30;20059;-79
2021/12/20 11:25:16;;;;;;;4.70;1.20;;;;;;;8.24;32.46;98405.38;9830709;30;20052;-77
2021/12/20 11:30:37;;;;;;;3.78;1.02;;;;;;;7.92;34.31;98408.13;9810479;30;20076;-77
2021/12/20 11:35:58;;;;;;;4.47;1.10;;;;;;;7.59;36.71;98396.16;9821593;30;20055;-76
2021/12/20 11:41:20;;;;;;;3.80;0.98;;;;;;;7.21;35.23;98399.00;9821702;30;20056;-76
2021/12/20 11:46:47;;;;;;;6.40;1.23;;;;;;;6.92;36.30;98407.50;9822245;30;20076;-77
2021/12/20 11:52:31;;;;;;;3.25;1.10;;;;;;;6.67;36.38;98409.34;9821910;30;20052;-77
2021/12/20 11:58:06;;;;;;;3.72;1.00;;;;;;;6.50;38.32;98402.28;9824015;30;20480;-77
2021/12/20 12:03:31;;;;;;;3.72;0.70;;;;;;;6.49;37.12;98394.50;9821238;30;20048;-77
2021/12/20 12:08:59;;;;;;;4.05;1.05;;;;;;;6.42;39.04;98393.19;9821206;30;20102;-77
2021/12/20 12:23:27;;;;;;;4.35;0.88;;;;;;;6.46;40.19;98396.34;9759562;30;20106;-77
2021/12/20 12:29:17;;;;;;;7.80;1.17;;;;;;;6.42;39.69;98395.97;9767505;30;20407;-76
2021/12/20 12:42:58;;;;;;;4.65;1.50;;;;;;;6.26;40.89;98399.97;9833847;30;20073;-77
2021/12/20 12:48:49;;;;;;;6.90;1.70;;;;;;;6.28;41.21;98398.16;9832407;30;20048;-79
2021/12/20 12:54:56;;;;;;;4.47;1.30;;;;;;;6.14;42.96;98404.38;9815183;30;20052;-78
2021/12/20 13:00:48;;;;;;;5.28;1.10;;;;;;;6.02;41.94;98410.25;9705259;30;20062;-82
2021/12/20 13:06:18;;;;;;;5.30;1.27;;;;;;;6.06;42.97;98426.53;9842105;30;20108;-82
2021/12/20 13:11:39;;;;;;;5.35;1.15;;;;;;;5.96;42.54;98408.94;9848566;30;20137;-83
2021/12/20 13:17:03;;;;;;;4.90;1.50;;;;;;;5.90;42.76;98420.19;9849247;30;20123;-82
2021/12/20 13:22:24;;;;;;;3.90;1.50;;;;;;;5.77;43.50;98425.81;9842269;30;20076;-84
2021/12/20 13:27:45;;;;;;;6.30;1.67;;;;;;;5.66;44.49;98434.41;9847257;30;20396;-82
2021/12/20 13:33:06;;;;;;;3.95;1.10;;;;;;;5.55;43.94;98429.94;9855956;30;20059;-82
2021/12/20 13:38:32;;;;;;;5.10;1.40;;;;;;;5.47;45.33;98424.34;9855541;30;20048;-83
2021/12/20 13:44:07;;;;;;;7.13;1.65;;;;;;;5.53;44.95;98421.44;9854748;30;20048;-82
2021/12/20 13:49:28;;;;;;;5.07;1.20;;;;;;;5.45;44.63;98421.38;9838454;30;20101;-82
2021/12/20 13:54:50;;;;;;;6.35;1.40;;;;;;;5.34;45.71;98427.22;9849997;30;20056;-82
2021/12/20 14:00:15;;;;;;;6.20;1.27;;;;;;;5.31;45.79;98428.31;9831113;30;20062;-82
2021/12/20 14:05:37;;;;;;;5.15;1.35;;;;;;;5.25;45.67;98438.75;9834814;30;20127;-82
2021/12/20 14:10:58;;;;;;;4.07;1.00;;;;;;;5.18;46.41;98445.72;9835161;30;20074;-82
2021/12/20 14:16:20;;;;;;;4.15;1.13;;;;;;;5.07;46.41;98439.72;9848753;30;20056;-82
2021/12/20 14:21:40;;;;;;;4.35;1.38;;;;;;;5.06;46.75;98441.75;9848158;30;20108;-82
2021/12/20 14:27:05;;;;;;;6.18;1.35;;;;;;;5.02;47.08;98448.88;9834992;30;20082;-82
2021/12/20 14:32:42;;;;;;;3.75;1.13;;;;;;;4.94;47.96;98453.63;9844261;30;20048;-83
2021/12/20 14:38:23;;;;;;;5.50;1.60;;;;;;;4.88;47.71;98459.28;9829506;30;20054;-82
2021/12/20 14:43:45;;;;;;;8.93;1.65;;;;;;;4.79;47.49;98452.19;9846015;30;20068;-82
2021/12/20 14:49:16;;;;;;;4.22;1.40;;;;;;;4.77;48.18;98460.31;9845679;30;20044;-82
2021/12/20 14:54:41;;;;;;;5.78;1.63;;;;;;;4.80;48.41;98466.78;9822699;30;20064;-82
2021/12/20 15:00:07;;;;;;;5.38;1.50;;;;;;;4.68;47.99;98466.28;9830092;30;20141;-82
2021/12/20 15:05:28;;;;;;;3.95;1.27;;;;;;;4.60;48.60;98476.53;9828193;30;20052;-82
2021/12/20 15:10:52;;;;;;;3.95;1.52;;;;;;;4.54;48.69;98482.19;9834389;30;20055;-82
2021/12/20 15:16:12;;;;;;;3.42;1.23;;;;;;;4.54;49.61;98478.69;9845759;30;20458;-82
2021/12/20 15:21:36;;;;;;;4.90;1.40;;;;;;;4.53;49.45;98480.69;9829057;30;20556;-82
2021/12/20 15:26:57;;;;;;;3.55;1.38;;;;;;;4.53;49.55;98491.00;9827293;30;20051;-79
2021/12/20 15:32:19;;;;;;;3.88;1.30;;;;;;;4.44;50.06;98492.22;9805161;30;20496;-79
2021/12/20 15:37:44;;;;;;;5.60;1.55;;;;;;;4.45;49.95;98502.00;9820651;30;20052;-79
2021/12/20 15:43:10;;;;;;;5.63;1.55;;;;;;;4.46;50.18;98508.28;9796677;30;20423;-79
2021/12/20 15:48:32;;;;;;;6.80;1.75;;;;;;;4.46;49.97;98517.31;9809396;30;20048;-79
2021/12/20 15:53:56;;;;;;;4.40;1.85;;;;;;;4.44;50.47;98511.56;9809755;30;20130;-79
2021/12/20 15:59:18;;;;;;;4.88;1.40;;;;;;;4.41;50.67;98520.16;9820722;30;20067;-79
2021/12/20 16:04:39;;;;;;;6.97;2.25;;;;;;;4.37;50.52;98520.50;9836660;30;20055;-79
2021/12/20 16:10:00;;;;;;;4.22;1.85;;;;;;;4.37;50.70;98522.53;9808518;30;20059;-79
2021/12/20 16:15:21;;;;;;;7.68;2.20;;;;;;;4.32;51.24;98519.34;9810136;30;20190;-79
2021/12/20 16:20:43;;;;;;;6.35;1.92;;;;;;;4.29;51.05;98525.94;9800047;30;20056;-79
2021/12/20 16:26:04;;;;;;;5.50;1.55;;;;;;;4.26;51.18;98521.47;9803903;30;20139;-79
2021/12/20 16:31:24;;;;;;;4.68;1.48;;;;;;;4.26;51.11;98531.78;9819720;30;20052;-82
2021/12/20 16:36:45;;;;;;;4.93;1.73;;;;;;;4.23;51.60;98530.81;9818521;30;20554;-81
2021/12/20 16:42:06;;;;;;;4.78;1.85;;;;;;;4.24;51.61;98526.03;9820085;30;20411;-81
2021/12/20 16:47:36;;;;;;;3.05;1.20;;;;;;;4.21;51.35;98530.63;9817408;30;20048;-82
2021/12/20 16:52:57;;;;;;;7.65;1.65;;;;;;;4.17;51.39;98527.44;9817431;30;20539;-81
2021/12/20 16:58:18;;;;;;;4.35;1.75;;;;;;;4.19;51.85;98535.94;9815509;30;20075;-79
2021/12/20 17:04:00;;;;;;;4.60;1.63;;;;;;;4.20;51.64;98526.38;9813628;30;20068;-79
2021/12/20 17:09:22;;;;;;;5.80;1.48;;;;;;;4.16;52.06;98539.78;9828875;30;20056;-79
2021/12/20 17:14:43;;;;;;;4.20;1.38;;;;;;;4.18;51.50;98539.97;9808647;30;20123;-79
2021/12/20 17:20:04;;;;;;;5.53;1.60;;;;;;;4.12;51.50;98550.38;9813455;30;20048;-79
2021/12/20 17:25:25;;;;;;;6.95;2.00;;;;;;;4.11;51.46;98546.13;9813415;30;20048;-79
2021/12/20 17:30:46;;;;;;;6.00;2.00;;;;;;;4.09;51.93;98556.97;9812226;30;20102;-79
2021/12/20 17:36:08;;;;;;;12.70;2.15;;;;;;;4.05;52.57;98564.84;9816137;30;20055;-82
2021/12/20 17:41:29;;;;;;;5.60;1.90;;;;;;;4.00;52.19;98565.69;9835505;30;20055;-82
2021/12/20 17:46:50;;;;;;;4.07;1.60;;;;;;;3.94;51.94;98565.78;9822447;30;20044;-82
2021/12/20 17:52:10;;;;;;;5.68;2.10;;;;;;;3.90;51.94;98559.84;9834281;30;20044;-83
2021/12/20 17:57:32;;;;;;;5.55;1.73;;;;;;;3.90;51.88;98573.66;9821203;30;20048;-81
2021/12/20 18:02:53;;;;;;;7.07;1.77;;;;;;;3.87;52.54;98583.00;9839897;30;20071;-78
2021/12/20 18:08:14;;;;;;;7.22;1.98;;;;;;;3.87;52.65;98571.22;9812016;30;20053;-79
2021/12/20 18:13:35;;;;;;;6.00;1.98;;;;;;;3.83;52.70;98592.88;9775638;30;20066;-79
2021/12/20 18:18:56;;;;;;;5.57;2.05;;;;;;;3.85;52.76;98587.56;9811403;30;20931;-79
2021/12/20 18:24:18;;;;;;;5.82;2.00;;;;;;;3.82;52.75;98585.84;9811514;30;20052;-79
2021/12/20 18:29:39;;;;;;;7.25;2.00;;;;;;;3.81;52.90;98587.13;9823090;30;20055;-79
2021/12/20 18:35:00;;;;;;;6.53;1.80;;;;;;;3.77;53.21;98590.22;9810786;30;20055;-79
2021/12/20 18:40:21;;;;;;;5.20;2.35;;;;;;;3.71;53.34;98587.53;9810701;30;20052;-79
2021/12/20 18:45:42;;;;;;;6.45;1.90;;;;;;;3.73;52.89;98595.28;9810434;30;20052;-79
2021/12/20 18:51:03;;;;;;;7.15;2.05;;;;;;;3.75;53.18;98598.25;9822536;30;20055;-79
2021/12/20 18:56:26;;;;;;;5.47;1.77;;;;;;;3.73;52.99;98601.56;9804202;30;20424;-80
2021/12/20 19:01:47;;;;;;;5.55;1.67;;;;;;;3.72;53.55;98604.84;9794224;30;20063;-79
2021/12/20 19:07:08;;;;;;;5.18;1.92;;;;;;;3.68;53.18;98601.66;9809850;30;20075;-79
2021/12/20 19:12:34;;;;;;;6.93;2.30;;;;;;;3.70;53.87;98605.38;9810008;30;20155;-78
2021/12/20 19:17:55;;;;;;;7.65;2.65;;;;;;;3.60;53.54;98604.28;9810119;30;20052;-79
2021/12/20 19:23:16;;;;;;;5.05;2.20;;;;;;;3.58;53.72;98611.63;9821528;30;20060;-78
2021/12/20 19:28:37;;;;;;;6.38;2.40;;;;;;;3.54;54.26;98611.91;9809344;30;20048;-78
2021/12/20 19:33:58;;;;;;;7.53;3.15;;;;;;;3.49;53.56;98607.25;9809010;30;20070;-78
2021/12/20 19:39:20;;;;;;;7.60;2.67;;;;;;;3.47;53.79;98606.25;9808779;30;20044;-78
2021/12/20 19:44:41;;;;;;;7.20;2.90;;;;;;;3.35;54.37;98606.44;9821507;30;20044;-78
2021/12/20 19:50:02;;;;;;;7.93;3.15;;;;;;;3.27;53.92;98602.78;9809200;30;20049;-78
2021/12/20 19:55:23;;;;;;;6.72;3.00;;;;;;;3.25;54.05;98599.06;9823682;30;20119;-78
2021/12/20 20:00:45;;;;;;;8.48;2.80;;;;;;;3.25;54.64;98602.56;9816780;30;20130;-78
2021/12/20 20:06:06;;;;;;;7.45;2.70;;;;;;;3.28;54.05;98617.31;9815872;30;20052;-78
2021/12/20 20:11:27;;;;;;;6.28;2.35;;;;;;;3.32;54.72;98612.25;9815725;30;20135;-78
2021/12/20 20:16:48;;;;;;;6.47;2.30;;;;;;;3.33;54.48;98611.00;9815973;30;20054;-80
2021/12/20 20:22:10;;;;;;;5.32;2.13;;;;;;;3.30;54.46;98609.28;9828355;30;20089;-79
2021/12/20 20:27:31;;;;;;;6.15;2.00;;;;;;;3.29;54.56;98613.31;9828578;30;20048;-80
2021/12/20 20:32:54;;;;;;;4.60;1.90;;;;;;;3.28;54.71;98620.09;9815501;30;20043;-79
2021/12/20 20:38:14;;;;;;;6.32;2.15;;;;;;;3.29;54.97;98624.38;9814885;30;20056;-79
2021/12/20 20:43:36;;;;;;;6.82;2.33;;;;;;;3.22;54.93;98620.19;9815060;30;20059;-80
2021/12/20 20:48:57;;;;;;;8.70;2.78;;;;;;;3.19;55.19;98626.75;9814377;30;20056;-79
2021/12/20 20:54:18;;;;;;;8.93;3.22;;;;;;;3.19;55.07;98631.53;9826400;30;20126;-78
2021/12/20 20:59:39;;;;;;;7.70;3.53;;;;;;;3.12;55.06;98622.56;9801672;30;20068;-79
2021/12/20 21:05:00;;;;;;;8.82;4.03;;;;;;;3.07;55.50;98622.66;9825950;30;20071;-79
2021/12/20 21:10:21;;;;;;;9.13;3.92;;;;;;;3.01;56.02;98622.75;9813645;30;20045;-79
2021/12/20 21:15:42;;;;;;;7.15;3.42;;;;;;;3.01;55.79;98624.75;9825900;30;20052;-78
2021/12/20 21:21:03;;;;;;;8.18;3.45;;;;;;;2.95;55.88;98618.56;9826030;30;20404;-78
2021/12/20 21:26:24;;;;;;;9.20;3.53;;;;;;;2.76;55.55;98615.78;9812893;30;20507;-78
2021/12/20 21:31:48;;;;;;;9.65;4.32;;;;;;;2.55;56.29;98621.06;9826055;30;20052;-79
2021/12/20 21:37:20;;;;;;;10.18;3.42;;;;;;;2.50;56.43;98624.63;9815231;30;20127;-80
2021/12/20 21:42:58;;;;;;;7.03;4.03;;;;;;;2.57;56.78;98619.28;9809092;30;20056;-79
2021/12/20 21:48:21;;;;;;;7.25;3.83;;;;;;;2.67;55.89;98624.44;9813269;30;20109;-79
2021/12/20 21:53:47;;;;;;;6.00;3.05;;;;;;;2.57;56.25;98619.28;9799030;30;20131;-80
2021/12/20 21:59:19;;;;;;;8.70;3.38;;;;;;;2.43;56.27;98620.44;9797710;30;20126;-79
2021/12/20 22:04:40;;;;;;;8.50;2.90;;;;;;;2.27;56.13;98618.63;9789593;30;20110;-80
2021/12/20 22:10:03;;;;;;;8.20;3.17;;;;;;;2.13;56.16;98623.28;9792387;30;20076;-80
2021/12/20 22:15:26;;;;;;;8.07;3.80;;;;;;;2.03;56.76;98635.13;9789812;30;20048;-79
2021/12/20 22:20:47;;;;;;;7.95;3.15;;;;;;;2.00;56.84;98632.16;9794932;30;20135;-79
2021/12/20 22:26:08;;;;;;;5.43;2.72;;;;;;;2.04;56.57;98620.13;9775375;30;20049;-79
2021/12/20 22:31:29;;;;;;;7.18;3.08;;;;;;;1.92;56.59;98625.72;9774796;30;20053;-80
2021/12/20 22:36:50;;;;;;;7.68;4.00;;;;;;;1.83;57.06;98625.31;9774959;30;20607;-79
2021/12/20 22:42:11;;;;;;;7.85;4.15;;;;;;;1.71;56.78;98624.66;9774790;30;20052;-79
2021/12/20 22:47:32;;;;;;;8.18;4.40;;;;;;;1.57;57.15;98621.03;9774661;30;20053;-79
2021/12/20 22:52:53;;;;;;;10.63;4.28;;;;;;;1.53;57.54;98617.78;9774099;30;20118;-79
2021/12/20 22:58:14;;;;;;;8.65;4.05;;;;;;;1.47;57.21;98619.13;9774248;30;20464;-79
2021/12/20 23:03:36;;;;;;;8.65;4.28;;;;;;;1.39;57.67;98616.91;9774522;30;20073;-79
2021/12/20 23:08:58;;;;;;;8.70;3.83;;;;;;;1.37;57.78;98626.94;9774143;30;20049;-80
2021/12/20 23:14:19;;;;;;;8.48;3.50;;;;;;;1.38;58.11;98625.69;9773941;30;20049;-79
2021/12/20 23:19:40;;;;;;;7.32;4.10;;;;;;;1.26;58.21;98629.78;9774100;30;20072;-79
2021/12/20 23:25:10;;;;;;;9.63;3.65;;;;;;;1.19;57.68;98619.31;9775619;30;20131;-79
2021/12/20 23:30:32;;;;;;;9.00;3.60;;;;;;;1.09;58.04;98625.13;9761426;30;20048;-79
2021/12/20 23:35:53;;;;;;;7.63;3.63;;;;;;;1.05;58.43;98615.63;9773267;30;20049;-79
2021/12/20 23:41:16;;;;;;;7.18;3.45;;;;;;;1.08;58.35;98620.13;9773470;30;20071;-79
2021/12/20 23:46:37;;;;;;;14.40;4.15;;;;;;;1.02;58.22;98622.16;9773741;30;20048;-79
2021/12/20 23:51:58;;;;;;;8.43;3.92;;;;;;;0.99;58.35;98618.41;9773020;30;20114;-79
2021/12/20 23:57:19;;;;;;;7.97;4.13;;;;;;;0.98;59.16;98616.19;9773221;30;20052;-80
